GMME/RBA METAR and TAF weather

Enter ICAO airport designator
Station Type Date Time Source
GMME METAR 2019/08/22 15:30 UTC NOAA

GMME 221530Z 35008KT 320V020 8000 NSC 29/18 Q1011 NOSIG


Station Type Date Time Source
GMME Decoded METAR 2019/08/22 15:30 UTC NOAA

Station name not available
Aug 22, 2019 - 11:30 AM EDT / 2019.08.22 1530 UTC
Wind: from the N (350 degrees) at 9 MPH (8 KT) (direction variable):0
Visibility: 4 mile(s):0
Temperature: 84 F (29 C)
Dew Point: 64 F (18 C)
Relative Humidity: 51%
Pressure (altimeter): 29.85 in. Hg (1011 hPa)
ob: GMME 221530Z 35008KT 320V020 8000 NSC 29/18 Q1011 NOSIG
cycle: 15

Station Type Date Time Source
GMME TAF 2019/08/22 12:16 UTC NOAA

TAF GMME 221100Z 2212/2318 32012KT CAVOK
TEMPO 2218/2300 22006KT 8000 NSC
BECMG 2303/2309 VRB02KT 3000 BR BKN006

Example: see airport list